Time;durP1;ratioP1;P1;durP2;ratioP2;P2;SDS_P1;SDS_P2;PMS_P1;PMS_P2;Temp;Humidity;BMP_temperature;BMP_pressure;BME280_temperature;BME280_humidity;BME280_pressure;Samples;Min_cycle;Max_cycle;Signal;HPM_P1;HPM_P2
2022/12/08 00:00:37;;;;;;;30.40;17.23;;;;;;;0.10;100.00;96203.41;5010175;28;20038;-69
2022/12/08 00:03:02;;;;;;;34.47;19.10;;;;;;;0.10;100.00;96208.00;5011137;28;20125;-68
2022/12/08 00:10:56;;;;;;;38.30;17.58;;;;;;;-0.57;100.00;96198.94;5010044;28;20453;-69
2022/12/08 00:13:22;;;;;;;34.10;19.45;;;;;;;-0.72;100.00;96200.13;5011188;28;20034;-69
2022/12/08 00:15:47;;;;;;;34.45;18.80;;;;;;;-0.74;100.00;96202.28;5009096;28;20382;-68
2022/12/08 00:18:13;;;;;;;34.75;19.50;;;;;;;-0.54;100.00;96195.66;5011239;28;20060;-69
2022/12/08 00:20:38;;;;;;;35.17;19.92;;;;;;;-0.40;100.00;96201.75;5000001;28;20030;-69
2022/12/08 00:23:04;;;;;;;39.63;19.15;;;;;;;-0.35;100.00;96200.03;5010988;28;20041;-68
2022/12/08 00:25:30;;;;;;;34.58;18.55;;;;;;;-0.28;100.00;96186.91;5000094;28;20102;-69
2022/12/08 00:27:56;;;;;;;33.90;18.42;;;;;;;-0.19;100.00;96185.06;5010803;28;20061;-68
2022/12/08 00:30:21;;;;;;;36.22;18.30;;;;;;;-0.11;100.00;96186.19;5006820;28;20061;-68
2022/12/08 00:32:47;;;;;;;41.67;20.10;;;;;;;-0.01;100.00;96189.41;5038156;28;20823;-68
2022/12/08 00:35:12;;;;;;;34.10;19.30;;;;;;;0.05;100.00;96186.59;5008658;28;20785;-68
2022/12/08 00:37:37;;;;;;;31.52;17.63;;;;;;;0.04;100.00;96185.78;5004790;28;20056;-68
2022/12/08 00:40:03;;;;;;;33.22;17.73;;;;;;;0.12;100.00;96179.63;5010018;28;20061;-68
2022/12/08 00:42:29;;;;;;;32.92;17.27;;;;;;;0.06;100.00;96172.81;5003703;28;20432;-68
2022/12/08 00:44:54;;;;;;;35.25;17.55;;;;;;;0.08;100.00;96170.59;5014754;28;20037;-68
2022/12/08 00:47:19;;;;;;;38.08;19.20;;;;;;;0.10;100.00;96171.06;5013899;28;20454;-69
2022/12/08 00:49:45;;;;;;;30.45;18.00;;;;;;;0.16;100.00;96164.47;5014809;28;20487;-68
2022/12/08 00:52:11;;;;;;;29.63;15.82;;;;;;;0.01;100.00;96174.84;5003972;28;20050;-68
2022/12/08 00:54:37;;;;;;;33.85;17.02;;;;;;;-0.09;100.00;96165.13;5014864;28;20026;-68
2022/12/08 00:57:02;;;;;;;36.25;17.83;;;;;;;-0.13;100.00;96170.34;5007742;28;20041;-68
2022/12/08 00:59:28;;;;;;;31.13;17.90;;;;;;;-0.28;100.00;96168.09;5006300;28;20041;-68
2022/12/08 01:01:53;;;;;;;30.30;16.50;;;;;;;-0.35;100.00;96168.50;5012421;28;20034;-68
2022/12/08 01:04:19;;;;;;;32.15;18.15;;;;;;;-0.46;100.00;96164.50;5014740;28;20065;-69
2022/12/08 01:06:45;;;;;;;35.70;17.90;;;;;;;-0.41;100.00;96169.75;5015085;28;20041;-68
2022/12/08 01:09:12;;;;;;;35.00;18.60;;;;;;;-0.54;100.00;96163.38;5010673;28;20026;-68
2022/12/08 01:11:38;;;;;;;33.90;19.23;;;;;;;-0.70;100.00;96170.19;5016260;28;20118;-68
2022/12/08 01:14:03;;;;;;;38.13;18.98;;;;;;;-0.82;100.00;96166.19;5019957;28;20057;-69
2022/12/08 01:16:31;;;;;;;35.67;19.27;;;;;;;-0.83;100.00;96163.78;5014872;28;20026;-69
2022/12/08 01:18:58;;;;;;;38.08;19.70;;;;;;;-0.61;100.00;96163.78;5014713;28;20083;-69
2022/12/08 01:21:24;;;;;;;34.42;19.17;;;;;;;-0.40;100.00;96164.06;5013363;28;20107;-69
2022/12/08 01:23:50;;;;;;;33.63;18.42;;;;;;;-0.26;100.00;96155.09;5014078;28;20040;-69
2022/12/08 01:26:17;;;;;;;30.48;18.08;;;;;;;-0.34;100.00;96153.97;5004985;28;20021;-68
2022/12/08 01:28:43;;;;;;;34.92;18.90;;;;;;;-0.46;100.00;96154.53;5012685;28;20495;-68
2022/12/08 01:31:14;;;;;;;35.20;18.20;;;;;;;-0.55;100.00;96159.06;5013950;28;20042;-68
2022/12/08 01:33:40;;;;;;;35.80;17.77;;;;;;;-0.59;100.00;96156.22;5013699;28;20061;-69
2022/12/08 01:36:06;;;;;;;36.95;18.20;;;;;;;-0.58;100.00;96151.59;5013030;28;20100;-68
2022/12/08 01:38:31;;;;;;;35.13;19.33;;;;;;;-0.67;100.00;96150.78;5013871;28;20034;-69
2022/12/08 01:40:57;;;;;;;36.78;18.67;;;;;;;-0.68;100.00;96149.97;5013514;28;20541;-70
2022/12/08 01:43:22;;;;;;;33.28;17.65;;;;;;;-0.66;100.00;96150.47;5022961;28;20040;-68
2022/12/08 01:45:48;;;;;;;35.05;18.63;;;;;;;-0.62;100.00;96145.28;5019908;28;20105;-68
2022/12/08 01:48:21;;;;;;;34.97;19.48;;;;;;;-0.47;100.00;96142.19;5022128;28;20112;-67
2022/12/08 01:50:48;;;;;;;32.35;18.63;;;;;;;-0.30;100.00;96138.00;5014155;28;20364;-68
2022/12/08 01:53:21;;;;;;;35.17;19.20;;;;;;;-0.21;100.00;96139.63;5013589;28;20026;-69
2022/12/08 01:55:52;;;;;;;35.55;18.92;;;;;;;-0.15;100.00;96136.78;5011893;28;20022;-69
2022/12/08 01:58:24;;;;;;;32.03;17.27;;;;;;;-0.15;100.00;96140.25;5012417;28;20025;-68
2022/12/08 02:00:51;;;;;;;33.35;17.75;;;;;;;-0.08;100.00;96135.22;5013664;28;20491;-67
2022/12/08 02:03:25;;;;;;;32.95;17.55;;;;;;;-0.03;100.00;96140.47;5013330;28;20068;-68
2022/12/08 02:05:51;;;;;;;31.55;16.67;;;;;;;0.05;100.00;96140.81;5009834;28;20506;-69
2022/12/08 02:08:18;;;;;;;34.35;17.52;;;;;;;0.06;100.00;96132.41;5012950;28;20499;-68
2022/12/08 02:10:51;;;;;;;36.33;16.85;;;;;;;0.10;100.00;96133.38;5013319;28;20065;-67
2022/12/08 02:13:19;;;;;;;30.17;17.20;;;;;;;0.10;100.00;96127.22;5010549;28;20037;-68
2022/12/08 02:15:51;;;;;;;32.20;16.67;;;;;;;0.12;100.00;96131.16;5011588;28;20034;-68
2022/12/08 02:18:36;;;;;;;33.10;17.40;;;;;;;0.03;100.00;96126.88;5011957;28;20105;-68
2022/12/08 02:21:31;;;;;;;30.27;17.38;;;;;;;-0.01;100.00;96119.41;5011960;28;20506;-68
2022/12/08 02:24:19;;;;;;;29.17;16.95;;;;;;;-0.15;100.00;96115.25;5011204;28;20041;-68
2022/12/08 02:27:12;;;;;;;32.63;17.73;;;;;;;-0.04;100.00;96113.84;5004343;28;20038;-67
2022/12/08 02:30:02;;;;;;;29.38;16.92;;;;;;;-0.03;100.00;96104.69;5011174;28;20067;-67
2022/12/08 02:32:48;;;;;;;33.88;18.95;;;;;;;-0.01;100.00;96105.94;5012772;28;20038;-68
2022/12/08 02:35:17;;;;;;;29.52;16.65;;;;;;;-0.09;100.00;96100.53;5007670;28;20431;-67
2022/12/08 02:38:20;;;;;;;32.05;18.10;;;;;;;-0.18;100.00;96103.22;5007500;28;20033;-68
2022/12/08 02:41:01;;;;;;;28.38;16.38;;;;;;;-0.19;100.00;96101.63;5011857;28;20042;-68
2022/12/08 02:43:41;;;;;;;33.63;16.38;;;;;;;-0.07;100.00;96095.66;5010701;28;20097;-68
2022/12/08 02:46:16;;;;;;;29.65;17.23;;;;;;;-0.02;100.00;96098.19;5011221;28;20045;-67
2022/12/08 02:48:42;;;;;;;31.15;16.35;;;;;;;0.07;100.00;96096.28;5009500;28;20029;-67
2022/12/08 02:51:08;;;;;;;30.60;16.63;;;;;;;0.07;100.00;96093.59;5010648;28;20602;-67
2022/12/08 02:53:35;;;;;;;29.00;16.58;;;;;;;0.11;100.00;96094.59;5010561;28;20407;-66
2022/12/08 02:56:37;;;;;;;32.25;17.20;;;;;;;0.09;100.00;96087.91;5009768;28;20411;-66
2022/12/08 02:59:08;;;;;;;31.65;16.15;;;;;;;0.09;100.00;96088.72;4995265;28;20108;-67
2022/12/08 03:01:42;;;;;;;33.67;17.52;;;;;;;0.06;100.00;96083.16;5005185;28;20458;-67
2022/12/08 03:04:24;;;;;;;29.55;15.90;;;;;;;0.20;100.00;96083.84;5012381;28;20030;-68
2022/12/08 03:07:07;;;;;;;31.25;16.48;;;;;;;0.23;100.00;96085.88;5011947;28;20481;-69
2022/12/08 03:09:44;;;;;;;31.52;15.80;;;;;;;0.08;100.00;96075.56;5011889;28;20062;-69
2022/12/08 03:12:36;;;;;;;27.80;15.90;;;;;;;0.05;100.00;96071.59;5012260;28;20332;-68
2022/12/08 03:15:08;;;;;;;34.83;17.10;;;;;;;0.12;100.00;96068.44;5012164;28;20033;-68
2022/12/08 03:17:37;;;;;;;28.23;16.63;;;;;;;0.12;100.00;96066.53;5012881;28;20055;-68
2022/12/08 03:20:10;;;;;;;31.33;17.47;;;;;;;0.05;100.00;96068.91;5012998;28;20057;-68
2022/12/08 03:22:38;;;;;;;28.92;16.00;;;;;;;0.06;100.00;96065.09;4997403;28;20269;-68
2022/12/08 03:25:04;;;;;;;29.80;16.83;;;;;;;0.06;100.00;96070.50;5012901;28;20040;-68
2022/12/08 03:27:31;;;;;;;31.23;17.10;;;;;;;0.00;100.00;96069.06;5013804;28;20041;-69
2022/12/08 03:29:58;;;;;;;27.25;15.32;;;;;;;-0.07;100.00;96052.59;5034538;28;20041;-68
2022/12/08 03:32:33;;;;;;;33.33;17.98;;;;;;;-0.08;100.00;96051.78;5016671;28;20034;-67
2022/12/08 03:35:01;;;;;;;28.98;16.90;;;;;;;-0.04;100.00;96052.75;5012587;28;20026;-66
2022/12/08 03:37:27;;;;;;;34.70;17.48;;;;;;;-0.02;100.00;96049.72;5010053;28;20088;-68
2022/12/08 03:39:53;;;;;;;31.40;15.73;;;;;;;0.01;100.00;96043.72;5012227;28;20039;-68
2022/12/08 03:42:19;;;;;;;29.40;17.08;;;;;;;0.00;100.00;96042.16;5012710;28;20034;-69
2022/12/08 03:44:44;;;;;;;30.90;16.40;;;;;;;0.05;100.00;96046.56;5012579;28;20022;-67
2022/12/08 03:47:10;;;;;;;27.83;15.73;;;;;;;0.02;100.00;96041.81;5011872;28;20095;-69
2022/12/08 03:49:35;;;;;;;31.77;16.75;;;;;;;-0.08;100.00;96037.53;5012403;28;20088;-69
2022/12/08 03:52:01;;;;;;;32.53;17.83;;;;;;;-0.01;100.00;96027.88;5011913;28;20487;-68
2022/12/08 03:54:26;;;;;;;32.05;16.55;;;;;;;-0.01;100.00;96037.84;5011899;28;20501;-67
2022/12/08 03:56:51;;;;;;;29.00;16.63;;;;;;;-0.06;100.00;96033.41;5010130;28;20108;-68
2022/12/08 03:59:17;;;;;;;30.42;16.25;;;;;;;-0.10;100.00;96021.69;5014642;28;20076;-68
2022/12/08 04:01:42;;;;;;;30.55;16.88;;;;;;;-0.05;100.00;96020.75;5016151;28;20129;-68
2022/12/08 04:04:08;;;;;;;31.83;17.45;;;;;;;-0.26;100.00;96024.03;5021226;28;20081;-67
2022/12/08 04:06:33;;;;;;;34.05;18.42;;;;;;;-0.61;100.00;96015.84;5017699;28;20042;-67
2022/12/08 04:08:59;;;;;;;33.90;17.48;;;;;;;-0.70;100.00;96016.91;5016363;28;20033;-68
2022/12/08 04:11:25;;;;;;;33.22;16.75;;;;;;;-0.53;100.00;96013.50;5015382;28;20391;-68
2022/12/08 04:13:50;;;;;;;36.40;18.77;;;;;;;-0.46;100.00;96019.22;5013249;28;20030;-68
2022/12/08 04:16:19;;;;;;;32.95;17.25;;;;;;;-0.40;100.00;96009.91;5012376;28;20084;-67
2022/12/08 04:18:44;;;;;;;36.97;18.75;;;;;;;-0.52;100.00;96007.00;5012961;28;20038;-68
2022/12/08 04:21:10;;;;;;;30.80;17.48;;;;;;;-0.48;100.00;96010.69;5011479;28;20071;-68
2022/12/08 04:23:36;;;;;;;32.67;18.23;;;;;;;-0.44;100.00;96007.03;5011275;28;20034;-68
2022/12/08 04:26:01;;;;;;;34.08;17.60;;;;;;;-0.30;100.00;95998.06;5010474;28;20042;-68
2022/12/08 04:28:28;;;;;;;31.42;16.95;;;;;;;-0.30;100.00;96014.22;5011826;28;20025;-67
2022/12/08 04:30:53;;;;;;;37.45;18.10;;;;;;;-0.28;100.00;96010.09;5011530;28;20044;-67
2022/12/08 04:33:19;;;;;;;32.15;17.88;;;;;;;-0.23;100.00;96007.25;5011064;28;20491;-68
2022/12/08 04:35:44;;;;;;;31.33;17.38;;;;;;;-0.03;100.00;96005.84;5010456;28;20107;-68
2022/12/08 04:38:09;;;;;;;49.15;33.75;;;;;;;0.06;100.00;96005.88;5012042;28;20034;-68
2022/12/08 04:40:35;;;;;;;35.88;20.55;;;;;;;0.09;100.00;96007.94;5012251;28;20034;-68
2022/12/08 04:43:00;;;;;;;34.95;22.38;;;;;;;0.18;100.00;96008.72;5012061;28;20391;-68
2022/12/08 04:45:26;;;;;;;39.78;22.55;;;;;;;0.18;100.00;96010.63;5010396;28;20026;-68
2022/12/08 04:47:51;;;;;;;28.63;17.42;;;;;;;0.10;100.00;96012.19;5011574;28;20041;-68
2022/12/08 04:50:17;;;;;;;27.52;16.75;;;;;;;0.12;100.00;96012.69;5010932;28;20376;-67
2022/12/08 04:52:42;;;;;;;29.60;16.65;;;;;;;0.17;100.00;96012.53;5010841;28;20301;-68
2022/12/08 04:55:08;;;;;;;31.77;16.98;;;;;;;0.21;100.00;95998.44;5011277;28;20088;-68
2022/12/08 04:57:33;;;;;;;27.27;15.98;;;;;;;0.19;100.00;96006.81;5010155;28;20037;-68
2022/12/08 04:59:58;;;;;;;30.52;15.52;;;;;;;0.15;100.00;96009.34;5011068;28;20033;-68
2022/12/08 05:02:24;;;;;;;28.70;16.70;;;;;;;-0.02;100.00;96012.84;5011347;28;20061;-67
2022/12/08 05:04:50;;;;;;;31.48;16.40;;;;;;;-0.17;100.00;96002.50;5011140;28;20034;-68
2022/12/08 05:07:15;;;;;;;32.28;16.75;;;;;;;-0.30;100.00;96011.53;5008925;28;20299;-66
2022/12/08 05:09:41;;;;;;;29.02;17.40;;;;;;;-0.43;100.00;96010.53;5011039;28;20041;-66
2022/12/08 05:12:06;;;;;;;30.42;16.85;;;;;;;-0.47;100.00;96002.31;5012688;28;20044;-68
2022/12/08 05:14:32;;;;;;;31.20;16.98;;;;;;;-0.47;100.00;95999.63;5015449;28;20041;-67
2022/12/08 05:16:57;;;;;;;36.78;18.75;;;;;;;-0.46;100.00;96003.88;5015097;28;20518;-66
2022/12/08 05:19:23;;;;;;;33.28;18.48;;;;;;;-0.59;100.00;95991.34;5015898;28;20509;-66
2022/12/08 05:21:48;;;;;;;36.17;18.13;;;;;;;-0.66;100.00;95997.16;5014824;28;20100;-66
2022/12/08 05:24:14;;;;;;;41.75;23.30;;;;;;;-0.69;100.00;95988.94;5014558;28;20022;-67
2022/12/08 05:26:39;;;;;;;37.10;20.45;;;;;;;-0.64;100.00;95992.25;5014467;28;20045;-69
2022/12/08 05:29:04;;;;;;;35.83;18.98;;;;;;;-0.55;100.00;95986.91;5015201;28;20034;-67
2022/12/08 05:31:30;;;;;;;36.85;18.08;;;;;;;-0.46;100.00;95987.72;5013505;28;20440;-67
2022/12/08 05:33:55;;;;;;;31.42;17.23;;;;;;;-0.30;100.00;95988.09;5015495;28;20036;-68
2022/12/08 05:36:21;;;;;;;35.63;18.85;;;;;;;-0.16;100.00;95987.97;5015679;28;20041;-68
2022/12/08 05:38:46;;;;;;;34.72;17.60;;;;;;;-0.12;100.00;95978.13;5019238;28;20112;-68
2022/12/08 05:41:17;;;;;;;42.05;20.60;;;;;;;-0.15;100.00;95983.34;5015683;28;20030;-68
2022/12/08 05:43:44;;;;;;;32.28;18.10;;;;;;;-0.21;100.00;95988.09;5014233;28;20052;-68
2022/12/08 05:46:10;;;;;;;40.83;19.20;;;;;;;-0.21;100.00;95990.78;5014526;28;20064;-68
2022/12/08 05:48:36;;;;;;;36.17;18.88;;;;;;;-0.07;100.00;95996.06;5015104;28;20033;-68
2022/12/08 05:51:01;;;;;;;30.45;18.67;;;;;;;0.03;100.00;95989.56;5013991;28;20045;-68
2022/12/08 05:53:27;;;;;;;33.33;18.42;;;;;;;0.05;100.00;95990.03;5014250;28;20080;-67
2022/12/08 05:55:53;;;;;;;28.42;15.65;;;;;;;0.15;100.00;95989.72;5013244;28;20554;-67
2022/12/08 05:58:20;;;;;;;32.90;16.85;;;;;;;0.18;100.00;95989.06;4996524;28;20014;-67
2022/12/08 06:00:47;;;;;;;26.60;16.25;;;;;;;0.17;100.00;95990.19;5014182;28;20037;-68
2022/12/08 06:03:14;;;;;;;27.55;16.45;;;;;;;0.12;100.00;95991.13;5012599;28;20037;-66
2022/12/08 06:05:41;;;;;;;29.92;16.42;;;;;;;-0.01;100.00;95979.41;5013303;28;20522;-68
2022/12/08 06:08:07;;;;;;;30.55;17.67;;;;;;;-0.13;100.00;95984.63;5012861;28;20046;-68
2022/12/08 06:10:36;;;;;;;27.52;15.18;;;;;;;-0.21;100.00;95986.19;5014359;28;20082;-68
2022/12/08 06:13:01;;;;;;;34.55;16.50;;;;;;;-0.29;100.00;95983.50;5015081;28;20037;-69
2022/12/08 06:15:27;;;;;;;31.65;17.13;;;;;;;-0.32;100.00;95982.22;5013936;28;20052;-67
2022/12/08 06:17:52;;;;;;;32.78;16.92;;;;;;;-0.33;100.00;95979.84;5022500;28;20516;-68
2022/12/08 06:20:17;;;;;;;31.70;17.02;;;;;;;-0.30;100.00;95984.59;5026533;28;20566;-66
2022/12/08 06:22:43;;;;;;;33.58;17.40;;;;;;;-0.37;100.00;95982.38;5020586;28;20044;-68
2022/12/08 06:25:09;;;;;;;33.92;16.98;;;;;;;-0.40;100.00;95975.72;5011978;28;20026;-68
2022/12/08 06:27:34;;;;;;;30.88;17.45;;;;;;;-0.40;100.00;95981.13;5013118;28;20037;-66
2022/12/08 06:29:59;;;;;;;34.38;18.20;;;;;;;-0.47;100.00;95983.47;5012395;28;20784;-67
2022/12/08 06:32:25;;;;;;;30.50;17.15;;;;;;;-0.45;100.00;95983.94;5013494;28;20096;-67
2022/12/08 06:34:51;;;;;;;33.90;17.20;;;;;;;-0.43;100.00;95987.13;5012956;28;20543;-69
2022/12/08 06:37:17;;;;;;;32.22;19.10;;;;;;;-0.34;100.00;95995.22;5012595;28;20045;-68
2022/12/08 06:39:42;;;;;;;32.85;18.95;;;;;;;-0.17;100.00;95989.06;5013243;28;20113;-67
2022/12/08 06:44:51;;;;;;;29.35;16.95;;;;;;;0.04;100.00;95991.94;5013659;28;20051;-68
2022/12/08 06:47:17;;;;;;;32.20;19.13;;;;;;;0.07;100.00;95993.19;5012663;28;20042;-65
2022/12/08 06:49:43;;;;;;;31.75;17.60;;;;;;;0.18;100.00;95989.06;5014699;28;20573;-67
2022/12/08 06:52:08;;;;;;;32.22;16.20;;;;;;;0.27;100.00;95984.50;5013697;28;20022;-66
2022/12/08 06:54:34;;;;;;;30.92;15.80;;;;;;;0.33;100.00;95990.50;5013385;28;20426;-67
2022/12/08 06:56:59;;;;;;;30.13;16.48;;;;;;;0.26;100.00;95990.97;5011551;28;20034;-68
2022/12/08 06:59:25;;;;;;;30.90;20.20;;;;;;;0.19;100.00;95986.06;5013015;28;20368;-68
2022/12/08 07:01:51;;;;;;;40.13;19.73;;;;;;;0.26;100.00;95984.81;5013747;28;20025;-67
2022/12/08 07:04:16;;;;;;;35.03;17.25;;;;;;;0.22;100.00;95995.44;5012981;28;20030;-67
2022/12/08 07:06:42;;;;;;;30.90;16.50;;;;;;;0.21;100.00;95993.03;5012394;28;20549;-67
2022/12/08 07:09:08;;;;;;;33.15;18.10;;;;;;;0.06;100.00;95995.09;5011388;28;20022;-68
2022/12/08 07:11:33;;;;;;;33.25;16.70;;;;;;;0.07;100.00;95996.66;5014423;28;20040;-67
2022/12/08 07:13:59;;;;;;;29.55;16.50;;;;;;;0.18;100.00;96000.66;5014136;28;20030;-67
2022/12/08 07:16:24;;;;;;;28.98;16.10;;;;;;;0.26;100.00;95999.06;5014186;28;20029;-67
2022/12/08 07:18:50;;;;;;;26.73;14.88;;;;;;;0.36;100.00;95998.75;5015196;28;20136;-68
2022/12/08 07:21:16;;;;;;;30.10;15.90;;;;;;;0.52;100.00;95992.88;4990511;28;20099;-67
2022/12/08 07:23:44;;;;;;;27.58;15.55;;;;;;;0.64;100.00;96000.31;4999793;28;20052;-67
2022/12/08 07:26:11;;;;;;;26.88;15.40;;;;;;;0.64;100.00;96001.09;4986618;28;20042;-66
2022/12/08 07:28:38;;;;;;;30.02;15.68;;;;;;;0.65;100.00;95999.19;4982205;28;20104;-67
2022/12/08 07:31:05;;;;;;;25.98;15.40;;;;;;;0.61;100.00;95995.56;4991471;28;20042;-67
2022/12/08 07:33:31;;;;;;;26.08;14.55;;;;;;;0.39;100.00;96002.69;4998582;28;20069;-65
2022/12/08 07:35:58;;;;;;;26.35;15.10;;;;;;;0.03;100.00;96000.31;4999959;28;20480;-66
2022/12/08 07:38:25;;;;;;;30.58;16.67;;;;;;;-0.26;100.00;95999.00;4990939;28;20053;-68
2022/12/08 07:40:51;;;;;;;42.15;21.90;;;;;;;-0.26;100.00;96001.72;4984640;28;20042;-71
2022/12/08 07:43:17;;;;;;;28.30;16.35;;;;;;;-0.32;100.00;96001.06;4979748;28;20038;-68
2022/12/08 07:45:42;;;;;;;33.63;17.40;;;;;;;-0.28;100.00;95998.53;4986090;28;20061;-69
2022/12/08 07:48:08;;;;;;;32.97;17.00;;;;;;;-0.31;100.00;95997.25;5009625;28;20069;-69
2022/12/08 07:50:33;;;;;;;34.30;17.45;;;;;;;-0.16;100.00;96000.59;4987720;28;20173;-69
2022/12/08 07:52:58;;;;;;;32.45;19.05;;;;;;;-0.11;100.00;95987.00;4992817;28;21053;-69
2022/12/08 07:55:24;;;;;;;38.08;18.05;;;;;;;-0.15;100.00;95997.59;4964109;28;20613;-67
2022/12/08 07:57:50;;;;;;;39.30;19.05;;;;;;;-0.03;100.00;95995.09;4995357;28;20085;-67
2022/12/08 08:00:17;;;;;;;68.22;40.67;;;;;;;-0.12;100.00;95994.28;5012564;28;20044;-68
2022/12/08 08:02:43;;;;;;;42.55;23.33;;;;;;;-0.08;100.00;95997.94;4985302;28;20186;-67
2022/12/08 08:05:09;;;;;;;37.10;19.38;;;;;;;0.04;100.00;95997.31;4975855;28;20492;-68
2022/12/08 08:07:35;;;;;;;31.75;18.27;;;;;;;0.12;100.00;96001.13;4979052;28;20515;-68
2022/12/08 08:10:02;;;;;;;35.88;16.88;;;;;;;0.13;100.00;96003.50;4982997;28;20057;-69
2022/12/08 08:12:27;;;;;;;32.20;17.63;;;;;;;0.27;100.00;96002.53;4997306;28;20049;-70
2022/12/08 08:14:52;;;;;;;36.53;17.63;;;;;;;0.27;100.00;96006.06;5002867;28;20119;-69
2022/12/08 08:17:18;;;;;;;36.10;18.20;;;;;;;0.19;100.00;96002.22;5004339;28;20041;-68
2022/12/08 08:19:45;;;;;;;33.47;16.77;;;;;;;0.14;100.00;96006.97;5011575;28;20105;-68
2022/12/08 08:22:10;;;;;;;32.00;18.00;;;;;;;0.12;100.00;95996.53;5014209;28;20063;-67
2022/12/08 08:24:35;;;;;;;33.22;18.02;;;;;;;0.21;100.00;95996.53;5039996;28;20049;-66
2022/12/08 08:27:01;;;;;;;38.67;17.88;;;;;;;0.08;100.00;95987.50;4999308;28;20106;-67
2022/12/08 08:29:27;;;;;;;35.00;18.00;;;;;;;0.28;100.00;95990.66;4999699;28;20052;-68
2022/12/08 08:31:52;;;;;;;37.25;17.75;;;;;;;0.31;100.00;95993.53;5020884;28;20045;-66
2022/12/08 08:34:18;;;;;;;38.00;20.10;;;;;;;0.34;100.00;95987.50;5021521;28;20491;-67
2022/12/08 08:36:43;;;;;;;29.05;17.05;;;;;;;0.45;100.00;95992.56;5013912;28;20049;-66
2022/12/08 08:39:08;;;;;;;32.28;17.38;;;;;;;0.65;100.00;95988.41;5010151;28;20111;-67
2022/12/08 08:41:34;;;;;;;35.25;19.88;;;;;;;0.81;100.00;95992.19;5005723;28;20038;-66
2022/12/08 08:44:00;;;;;;;48.78;25.75;;;;;;;0.86;100.00;95992.00;5014233;28;20034;-67
2022/12/08 08:46:25;;;;;;;31.00;17.58;;;;;;;1.06;100.00;95990.56;4995268;28;20049;-67
2022/12/08 08:48:51;;;;;;;29.90;16.67;;;;;;;1.07;100.00;95989.41;5007469;28;20610;-67
2022/12/08 08:51:16;;;;;;;27.60;16.73;;;;;;;1.03;100.00;95996.56;5009377;28;20533;-67
2022/12/08 08:53:42;;;;;;;27.60;17.23;;;;;;;1.22;100.00;95981.91;5001862;28;20038;-69
2022/12/08 08:56:09;;;;;;;31.30;18.50;;;;;;;1.19;100.00;95987.94;4984478;28;20046;-68
2022/12/08 08:58:35;;;;;;;29.65;17.70;;;;;;;1.41;100.00;95985.00;4994193;28;20042;-67
2022/12/08 09:01:00;;;;;;;29.10;16.77;;;;;;;1.56;100.00;95985.56;4989253;28;20091;-70
2022/12/08 09:03:26;;;;;;;31.17;17.85;;;;;;;1.57;100.00;95992.53;5001388;28;20073;-68
2022/12/08 09:05:51;;;;;;;33.33;17.67;;;;;;;1.26;100.00;95985.53;4998880;28;20092;-68
2022/12/08 09:08:17;;;;;;;31.13;18.17;;;;;;;1.51;100.00;95986.53;5018280;28;20049;-66
2022/12/08 09:10:42;;;;;;;35.75;21.17;;;;;;;1.61;100.00;95993.50;4998095;28;20582;-67
2022/12/08 09:13:08;;;;;;;28.45;17.63;;;;;;;1.57;100.00;95992.53;5000326;28;20109;-67
2022/12/08 09:15:33;;;;;;;32.95;21.25;;;;;;;1.50;100.00;95993.06;5010869;28;20140;-67
2022/12/08 09:17:59;;;;;;;35.42;18.35;;;;;;;1.77;100.00;95989.09;4990123;28;20129;-67
2022/12/08 09:20:24;;;;;;;28.85;16.55;;;;;;;1.74;100.00;95997.06;4979059;28;20125;-66
2022/12/08 09:22:50;;;;;;;32.72;17.67;;;;;;;1.46;100.00;95989.41;4986357;28;20128;-67
2022/12/08 09:25:15;;;;;;;27.75;16.25;;;;;;;1.76;100.00;95979.41;4979812;28;20050;-66
2022/12/08 09:27:41;;;;;;;28.15;15.38;;;;;;;2.13;100.00;95982.34;5001082;28;20408;-67
2022/12/08 09:30:07;;;;;;;29.15;14.68;;;;;;;2.12;100.00;95977.28;5029878;28;20046;-66
2022/12/08 09:32:33;;;;;;;29.80;15.30;;;;;;;2.23;100.00;95984.66;4987899;28;20047;-67
2022/12/08 09:34:58;;;;;;;27.38;15.38;;;;;;;2.14;100.00;95983.13;4991749;28;20076;-67
2022/12/08 09:37:24;;;;;;;30.55;16.27;;;;;;;2.40;100.00;95978.31;4996017;28;20042;-68
2022/12/08 09:39:49;;;;;;;28.20;15.13;;;;;;;2.49;100.00;95981.72;4988479;28;20727;-68
2022/12/08 09:42:23;;;;;;;24.83;13.75;;;;;;;2.86;100.00;95979.16;4993470;28;20069;-68
2022/12/08 09:44:53;;;;;;;29.98;12.32;;;;;;;3.06;100.00;95976.72;4996610;28;20054;-68
2022/12/08 09:47:34;;;;;;;21.17;11.80;;;;;;;3.26;100.00;95966.97;4992173;28;20034;-67
2022/12/08 09:50:03;;;;;;;21.75;12.63;;;;;;;3.40;100.00;95969.31;5007194;28;20745;-67
2022/12/08 09:52:52;;;;;;;25.02;12.77;;;;;;;3.59;100.00;95963.34;5002088;28;20046;-67
2022/12/08 09:55:45;;;;;;;22.08;15.93;;;;;;;3.56;100.00;95947.78;5013172;28;20053;-67
2022/12/08 09:58:51;;;;;;;21.63;12.05;;;;;;;3.41;100.00;95949.25;4998157;28;20076;-66
2022/12/08 10:01:18;;;;;;;19.80;11.48;;;;;;;3.69;100.00;95953.97;4994226;28;20045;-67
2022/12/08 10:03:45;;;;;;;21.60;11.38;;;;;;;3.84;100.00;95947.88;5020984;28;20073;-67
2022/12/08 10:06:31;;;;;;;19.35;10.70;;;;;;;3.92;100.00;95944.22;4993566;28;20109;-66
2022/12/08 10:09:13;;;;;;;21.75;10.30;;;;;;;4.12;100.00;95937.06;5001080;28;20046;-66
2022/12/08 10:11:45;;;;;;;22.30;11.63;;;;;;;4.27;100.00;95935.56;5005703;28;20429;-66
2022/12/08 10:14:28;;;;;;;18.05;11.30;;;;;;;4.40;99.42;95936.31;4978618;28;20044;-67
2022/12/08 10:16:59;;;;;;;21.33;11.15;;;;;;;4.55;98.09;95932.84;4992440;28;20081;-67
2022/12/08 10:19:26;;;;;;;21.63;11.43;;;;;;;4.59;97.34;95928.31;5000602;28;20136;-67
2022/12/08 10:21:53;;;;;;;19.98;11.20;;;;;;;4.58;96.26;95928.66;4996140;28;20077;-68
2022/12/08 10:24:30;;;;;;;27.25;11.05;;;;;;;4.51;96.46;95925.75;4995674;28;20042;-67
2022/12/08 10:26:56;;;;;;;18.42;11.27;;;;;;;4.05;97.92;95927.94;5001454;28;20045;-67
2022/12/08 10:29:22;;;;;;;18.80;11.50;;;;;;;4.10;98.89;95925.78;5001296;28;20572;-68
2022/12/08 10:31:47;;;;;;;20.58;10.48;;;;;;;3.75;99.71;95918.19;5004156;28;20132;-67
2022/12/08 10:34:16;;;;;;;20.15;11.02;;;;;;;3.74;100.00;95911.19;4996958;28;20399;-67
2022/12/08 10:36:55;;;;;;;32.13;13.88;;;;;;;3.97;100.00;95906.06;4999787;28;20046;-68
2022/12/08 10:39:31;;;;;;;23.50;13.63;;;;;;;4.08;100.00;95909.06;4995466;28;20045;-68
2022/12/08 10:42:20;;;;;;;24.35;13.85;;;;;;;4.25;99.35;95905.31;5006022;28;20042;-67
2022/12/08 10:44:57;;;;;;;25.85;13.55;;;;;;;4.12;98.92;95901.84;4993965;28;20041;-67
2022/12/08 10:47:25;;;;;;;20.48;12.45;;;;;;;4.21;97.61;95893.56;4998464;28;20045;-67
2022/12/08 10:50:06;;;;;;;22.80;11.32;;;;;;;4.40;93.66;95890.22;5004443;28;20038;-67
2022/12/08 10:52:36;;;;;;;20.92;11.48;;;;;;;4.08;95.03;95890.09;5001439;28;20459;-67
2022/12/08 10:55:02;;;;;;;21.08;11.52;;;;;;;3.93;97.42;95880.78;4999984;28;20407;-68
2022/12/08 10:57:27;;;;;;;19.75;10.88;;;;;;;4.20;95.23;95895.50;4998153;28;20041;-69
2022/12/08 10:59:56;;;;;;;31.30;12.68;;;;;;;4.11;95.48;95886.72;5004232;28;20042;-68
2022/12/08 11:02:21;;;;;;;18.50;10.70;;;;;;;3.95;94.64;95875.81;4998419;28;20510;-68
2022/12/08 11:04:57;;;;;;;19.45;11.45;;;;;;;3.82;95.11;95869.66;5002192;28;20038;-67
2022/12/08 11:07:23;;;;;;;21.35;11.48;;;;;;;4.03;96.37;95868.66;4997402;28;20993;-68
2022/12/08 11:09:54;;;;;;;18.45;11.10;;;;;;;4.34;96.14;95868.00;5019626;28;20121;-66
2022/12/08 11:12:21;;;;;;;20.50;10.55;;;;;;;4.57;94.81;95864.69;5012281;28;20045;-67
2022/12/08 11:14:53;;;;;;;22.27;10.85;;;;;;;4.85;91.60;95861.16;5023205;28;20045;-66
2022/12/08 11:17:22;;;;;;;19.48;11.05;;;;;;;3.65;97.25;95856.38;5015890;28;20061;-67
2022/12/08 11:19:59;;;;;;;17.83;10.68;;;;;;;3.50;97.73;95860.56;5019233;28;20048;-67
2022/12/08 11:22:41;;;;;;;20.48;10.75;;;;;;;2.90;99.01;95854.88;5012422;28;21068;-66
2022/12/08 11:25:07;;;;;;;21.50;11.15;;;;;;;2.48;100.00;95850.44;4988132;28;20066;-67
2022/12/08 11:27:35;;;;;;;20.17;11.82;;;;;;;2.55;100.00;95841.75;4992713;28;20558;-67